KSYR/SYR METAR and TAF weather

Enter ICAO airport designator
Station Type Date Time Source
KSYR METAR 2020/07/06 22:54 UTC NOAA

KSYR 062254Z 03005KT 10SM FEW050 32/14 A2999 RMK AO2 SLP150 T03220144


Station Type Date Time Source
KSYR Decoded METAR 2020/07/06 22:54 UTC NOAA

SYRACUSE HANCOCK INTERNATIONAL AIRPORT , NY, United States (KSYR) 43-07N 76-06W 127M
Jul 06, 2020 - 06:54 PM EDT / 2020.07.06 2254 UTC
Wind: from the NNE (030 degrees) at 6 MPH (5 KT):0
Visibility: 10 mile(s):0
Sky conditions: mostly clear
Temperature: 90.0 F (32.2 C)
Dew Point: 57.9 F (14.4 C)
Relative Humidity: 34%
Pressure (altimeter): 29.99 in. Hg (1015 hPa)
ob: KSYR 062254Z 03005KT 10SM FEW050 32/14 A2999 RMK AO2 SLP150 T03220144
cycle: 23

Station Type Date Time Source
KSYR TAF 2020/07/06 18:54 UTC NOAA

TAF KSYR 061751Z 0618/0718 VRB05KT P6SM SCT050
FM070100 11003KT P6SM SCT250
FM071200 15006KT P6SM SCT025 BKN050

Example: see airport list